sensor_id;sensor_type;location;lat;lon;timestamp;P1;durP1;ratioP1;P2;durP2;ratioP2
69856;SDS011;57147;53.582;10.112;2022-07-06T00:04:00;5.25;;;0.90;;
69856;SDS011;57147;53.582;10.112;2022-07-06T00:14:31;1.75;;;0.57;;
69856;SDS011;57147;53.582;10.112;2022-07-06T00:19:34;8.00;;;0.90;;
69856;SDS011;57147;53.582;10.112;2022-07-06T00:24:35;3.08;;;0.38;;
69856;SDS011;57147;53.582;10.112;2022-07-06T00:29:36;3.25;;;0.47;;
69856;SDS011;57147;53.582;10.112;2022-07-06T00:34:46;6.00;;;0.85;;
69856;SDS011;57147;53.582;10.112;2022-07-06T00:39:46;4.07;;;0.55;;
69856;SDS011;57147;53.582;10.112;2022-07-06T00:44:47;4.32;;;1.15;;
69856;SDS011;57147;53.582;10.112;2022-07-06T00:49:50;2.65;;;0.68;;
69856;SDS011;57147;53.582;10.112;2022-07-06T00:54:51;3.60;;;0.40;;
69856;SDS011;57147;53.582;10.112;2022-07-06T00:59:51;4.90;;;0.43;;
69856;SDS011;57147;53.582;10.112;2022-07-06T01:04:55;5.68;;;0.55;;
69856;SDS011;57147;53.582;10.112;2022-07-06T01:09:55;3.33;;;0.40;;
69856;SDS011;57147;53.582;10.112;2022-07-06T01:14:56;2.78;;;0.43;;
69856;SDS011;57147;53.582;10.112;2022-07-06T01:25:08;3.85;;;0.70;;
69856;SDS011;57147;53.582;10.112;2022-07-06T01:30:10;3.38;;;1.08;;
69856;SDS011;57147;53.582;10.112;2022-07-06T01:40:45;3.65;;;0.60;;
69856;SDS011;57147;53.582;10.112;2022-07-06T01:45:46;4.18;;;0.52;;
69856;SDS011;57147;53.582;10.112;2022-07-06T01:50:46;4.72;;;0.77;;
69856;SDS011;57147;53.582;10.112;2022-07-06T01:55:49;5.28;;;0.50;;
69856;SDS011;57147;53.582;10.112;2022-07-06T02:00:50;4.07;;;0.43;;
69856;SDS011;57147;53.582;10.112;2022-07-06T02:05:51;3.40;;;0.28;;
69856;SDS011;57147;53.582;10.112;2022-07-06T02:10:54;1.73;;;0.40;;
69856;SDS011;57147;53.582;10.112;2022-07-06T02:15:55;4.18;;;0.60;;
69856;SDS011;57147;53.582;10.112;2022-07-06T02:20:55;4.13;;;0.47;;
69856;SDS011;57147;53.582;10.112;2022-07-06T02:25:59;2.90;;;0.38;;
69856;SDS011;57147;53.582;10.112;2022-07-06T02:30:59;3.45;;;0.40;;
69856;SDS011;57147;53.582;10.112;2022-07-06T02:36:00;1.85;;;0.20;;
69856;SDS011;57147;53.582;10.112;2022-07-06T02:41:03;4.30;;;1.70;;
69856;SDS011;57147;53.582;10.112;2022-07-06T02:46:04;2.95;;;0.70;;
69856;SDS011;57147;53.582;10.112;2022-07-06T02:51:04;2.83;;;0.35;;
69856;SDS011;57147;53.582;10.112;2022-07-06T02:56:09;4.07;;;0.45;;
69856;SDS011;57147;53.582;10.112;2022-07-06T03:01:09;3.50;;;0.20;;
69856;SDS011;57147;53.582;10.112;2022-07-06T03:06:10;4.35;;;0.38;;
69856;SDS011;57147;53.582;10.112;2022-07-06T03:11:13;3.63;;;0.85;;
69856;SDS011;57147;53.582;10.112;2022-07-06T03:16:14;2.53;;;0.25;;
69856;SDS011;57147;53.582;10.112;2022-07-06T03:21:14;4.05;;;0.10;;
69856;SDS011;57147;53.582;10.112;2022-07-06T03:26:18;2.95;;;0.35;;
69856;SDS011;57147;53.582;10.112;2022-07-06T03:31:18;3.38;;;0.57;;
69856;SDS011;57147;53.582;10.112;2022-07-06T03:36:19;3.28;;;0.30;;
69856;SDS011;57147;53.582;10.112;2022-07-06T03:41:22;4.13;;;1.10;;
69856;SDS011;57147;53.582;10.112;2022-07-06T03:46:23;4.22;;;1.77;;
69856;SDS011;57147;53.582;10.112;2022-07-06T03:51:23;5.22;;;0.60;;
69856;SDS011;57147;53.582;10.112;2022-07-06T03:56:27;4.28;;;0.75;;
69856;SDS011;57147;53.582;10.112;2022-07-06T04:01:27;3.28;;;0.57;;
69856;SDS011;57147;53.582;10.112;2022-07-06T04:06:29;4.93;;;1.65;;
69856;SDS011;57147;53.582;10.112;2022-07-06T04:11:32;4.93;;;1.42;;
69856;SDS011;57147;53.582;10.112;2022-07-06T04:16:32;6.38;;;1.27;;
69856;SDS011;57147;53.582;10.112;2022-07-06T04:21:33;5.22;;;1.00;;
69856;SDS011;57147;53.582;10.112;2022-07-06T04:26:36;3.28;;;1.35;;
69856;SDS011;57147;53.582;10.112;2022-07-06T04:31:37;5.97;;;0.63;;
69856;SDS011;57147;53.582;10.112;2022-07-06T04:36:38;4.80;;;0.35;;
69856;SDS011;57147;53.582;10.112;2022-07-06T04:41:41;4.30;;;0.73;;
69856;SDS011;57147;53.582;10.112;2022-07-06T04:46:41;3.70;;;0.88;;
69856;SDS011;57147;53.582;10.112;2022-07-06T04:51:42;6.82;;;0.93;;
69856;SDS011;57147;53.582;10.112;2022-07-06T04:56:45;4.13;;;0.50;;
69856;SDS011;57147;53.582;10.112;2022-07-06T05:01:46;2.72;;;0.40;;
69856;SDS011;57147;53.582;10.112;2022-07-06T05:06:47;7.40;;;0.60;;
69856;SDS011;57147;53.582;10.112;2022-07-06T05:11:50;2.83;;;0.82;;
69856;SDS011;57147;53.582;10.112;2022-07-06T05:16:51;4.70;;;0.32;;
69856;SDS011;57147;53.582;10.112;2022-07-06T05:21:51;6.60;;;0.50;;
69856;SDS011;57147;53.582;10.112;2022-07-06T05:26:54;5.22;;;0.47;;
69856;SDS011;57147;53.582;10.112;2022-07-06T05:31:55;6.88;;;0.30;;
69856;SDS011;57147;53.582;10.112;2022-07-06T05:36:56;6.10;;;2.40;;
69856;SDS011;57147;53.582;10.112;2022-07-06T05:41:59;6.70;;;1.38;;
69856;SDS011;57147;53.582;10.112;2022-07-06T05:47:00;5.78;;;0.30;;
69856;SDS011;57147;53.582;10.112;2022-07-06T05:52:01;5.43;;;0.40;;
69856;SDS011;57147;53.582;10.112;2022-07-06T05:57:04;4.28;;;0.93;;
69856;SDS011;57147;53.582;10.112;2022-07-06T06:02:05;8.05;;;0.93;;
69856;SDS011;57147;53.582;10.112;2022-07-06T06:07:06;6.65;;;1.67;;
69856;SDS011;57147;53.582;10.112;2022-07-06T06:12:10;5.28;;;0.88;;
69856;SDS011;57147;53.582;10.112;2022-07-06T06:17:11;6.07;;;0.75;;
69856;SDS011;57147;53.582;10.112;2022-07-06T06:22:11;7.47;;;2.45;;
69856;SDS011;57147;53.582;10.112;2022-07-06T06:27:15;6.53;;;0.93;;
69856;SDS011;57147;53.582;10.112;2022-07-06T06:32:17;5.82;;;0.68;;
69856;SDS011;57147;53.582;10.112;2022-07-06T06:37:17;3.58;;;1.02;;
69856;SDS011;57147;53.582;10.112;2022-07-06T06:42:21;5.32;;;0.20;;
69856;SDS011;57147;53.582;10.112;2022-07-06T06:47:22;4.80;;;1.52;;
69856;SDS011;57147;53.582;10.112;2022-07-06T06:52:23;5.10;;;0.60;;
69856;SDS011;57147;53.582;10.112;2022-07-06T06:57:26;4.18;;;0.60;;
69856;SDS011;57147;53.582;10.112;2022-07-06T07:02:27;1.75;;;0.55;;
69856;SDS011;57147;53.582;10.112;2022-07-06T07:07:27;3.28;;;1.45;;
69856;SDS011;57147;53.582;10.112;2022-07-06T07:12:31;2.67;;;0.40;;
69856;SDS011;57147;53.582;10.112;2022-07-06T07:17:31;1.45;;;0.90;;
69856;SDS011;57147;53.582;10.112;2022-07-06T07:22:32;3.75;;;0.63;;
69856;SDS011;57147;53.582;10.112;2022-07-06T07:27:35;3.90;;;0.75;;
69856;SDS011;57147;53.582;10.112;2022-07-06T07:32:36;4.22;;;0.35;;
69856;SDS011;57147;53.582;10.112;2022-07-06T07:37:37;5.07;;;0.40;;
69856;SDS011;57147;53.582;10.112;2022-07-06T07:42:40;3.30;;;0.73;;
69856;SDS011;57147;53.582;10.112;2022-07-06T07:47:41;2.30;;;0.85;;
69856;SDS011;57147;53.582;10.112;2022-07-06T07:52:42;5.00;;;0.63;;
69856;SDS011;57147;53.582;10.112;2022-07-06T07:57:45;1.95;;;0.52;;
69856;SDS011;57147;53.582;10.112;2022-07-06T08:02:46;5.68;;;0.63;;
69856;SDS011;57147;53.582;10.112;2022-07-06T08:07:46;1.60;;;1.50;;
69856;SDS011;57147;53.582;10.112;2022-07-06T08:12:50;1.55;;;0.68;;
69856;SDS011;57147;53.582;10.112;2022-07-06T08:17:50;1.63;;;0.63;;
69856;SDS011;57147;53.582;10.112;2022-07-06T08:22:51;1.48;;;0.32;;
69856;SDS011;57147;53.582;10.112;2022-07-06T08:27:54;1.50;;;0.30;;
69856;SDS011;57147;53.582;10.112;2022-07-06T08:32:55;1.08;;;0.10;;
69856;SDS011;57147;53.582;10.112;2022-07-06T08:37:55;2.88;;;0.65;;
69856;SDS011;57147;53.582;10.112;2022-07-06T08:42:59;2.58;;;0.13;;
69856;SDS011;57147;53.582;10.112;2022-07-06T08:48:02;3.15;;;0.52;;
69856;SDS011;57147;53.582;10.112;2022-07-06T08:53:04;2.17;;;0.30;;
69856;SDS011;57147;53.582;10.112;2022-07-06T08:58:07;4.05;;;0.70;;
69856;SDS011;57147;53.582;10.112;2022-07-06T09:03:10;3.75;;;0.38;;
69856;SDS011;57147;53.582;10.112;2022-07-06T09:08:12;2.50;;;0.47;;
69856;SDS011;57147;53.582;10.112;2022-07-06T09:13:16;3.25;;;1.25;;
69856;SDS011;57147;53.582;10.112;2022-07-06T09:18:16;4.03;;;1.00;;
69856;SDS011;57147;53.582;10.112;2022-07-06T09:23:17;3.55;;;0.73;;
69856;SDS011;57147;53.582;10.112;2022-07-06T09:28:20;1.13;;;0.40;;
69856;SDS011;57147;53.582;10.112;2022-07-06T09:33:21;0.75;;;0.30;;
69856;SDS011;57147;53.582;10.112;2022-07-06T09:38:21;2.25;;;0.65;;
69856;SDS011;57147;53.582;10.112;2022-07-06T09:43:29;1.48;;;1.15;;
69856;SDS011;57147;53.582;10.112;2022-07-06T09:48:29;1.20;;;0.40;;
69856;SDS011;57147;53.582;10.112;2022-07-06T09:53:30;1.63;;;0.65;;
69856;SDS011;57147;53.582;10.112;2022-07-06T09:58:34;0.95;;;0.82;;
69856;SDS011;57147;53.582;10.112;2022-07-06T10:03:38;2.38;;;1.25;;
69856;SDS011;57147;53.582;10.112;2022-07-06T10:08:39;1.25;;;0.15;;
69856;SDS011;57147;53.582;10.112;2022-07-06T10:13:43;1.05;;;0.10;;
69856;SDS011;57147;53.582;10.112;2022-07-06T10:18:46;1.33;;;0.30;;
69856;SDS011;57147;53.582;10.112;2022-07-06T10:23:48;6.40;;;1.38;;
69856;SDS011;57147;53.582;10.112;2022-07-06T10:28:52;1.77;;;0.47;;
69856;SDS011;57147;53.582;10.112;2022-07-06T10:33:53;1.98;;;0.25;;
69856;SDS011;57147;53.582;10.112;2022-07-06T10:38:55;1.40;;;0.55;;
69856;SDS011;57147;53.582;10.112;2022-07-06T10:43:58;1.98;;;0.25;;
69856;SDS011;57147;53.582;10.112;2022-07-06T10:49:15;2.25;;;1.23;;
69856;SDS011;57147;53.582;10.112;2022-07-06T10:54:18;2.03;;;0.13;;
69856;SDS011;57147;53.582;10.112;2022-07-06T10:59:22;2.78;;;0.20;;
69856;SDS011;57147;53.582;10.112;2022-07-06T11:04:23;2.63;;;0.50;;
69856;SDS011;57147;53.582;10.112;2022-07-06T11:09:31;1.40;;;0.00;;
69856;SDS011;57147;53.582;10.112;2022-07-06T11:14:36;4.40;;;0.25;;
69856;SDS011;57147;53.582;10.112;2022-07-06T11:19:38;2.10;;;0.03;;
69856;SDS011;57147;53.582;10.112;2022-07-06T11:24:49;3.40;;;0.40;;
69856;SDS011;57147;53.582;10.112;2022-07-06T11:29:53;4.28;;;0.50;;
69856;SDS011;57147;53.582;10.112;2022-07-06T11:34:55;3.85;;;0.17;;
69856;SDS011;57147;53.582;10.112;2022-07-06T11:39:55;2.25;;;0.68;;
69856;SDS011;57147;53.582;10.112;2022-07-06T11:44:58;3.95;;;1.10;;
69856;SDS011;57147;53.582;10.112;2022-07-06T11:49:59;2.55;;;0.73;;
69856;SDS011;57147;53.582;10.112;2022-07-06T11:55:00;3.40;;;0.38;;
69856;SDS011;57147;53.582;10.112;2022-07-06T12:00:03;4.57;;;0.32;;
69856;SDS011;57147;53.582;10.112;2022-07-06T12:05:06;4.82;;;0.60;;
69856;SDS011;57147;53.582;10.112;2022-07-06T12:10:07;2.75;;;0.30;;
69856;SDS011;57147;53.582;10.112;2022-07-06T12:15:11;2.35;;;0.15;;
69856;SDS011;57147;53.582;10.112;2022-07-06T12:20:12;1.92;;;0.43;;
69856;SDS011;57147;53.582;10.112;2022-07-06T12:30:32;2.20;;;0.10;;
69856;SDS011;57147;53.582;10.112;2022-07-06T12:35:33;2.38;;;0.22;;
69856;SDS011;57147;53.582;10.112;2022-07-06T12:40:35;1.13;;;0.17;;
69856;SDS011;57147;53.582;10.112;2022-07-06T12:45:39;2.05;;;0.25;;
69856;SDS011;57147;53.582;10.112;2022-07-06T12:50:40;2.20;;;0.45;;
69856;SDS011;57147;53.582;10.112;2022-07-06T12:55:40;2.92;;;0.40;;
69856;SDS011;57147;53.582;10.112;2022-07-06T13:00:46;1.38;;;0.10;;
69856;SDS011;57147;53.582;10.112;2022-07-06T13:05:49;2.20;;;0.43;;
69856;SDS011;57147;53.582;10.112;2022-07-06T13:10:50;3.08;;;0.43;;
69856;SDS011;57147;53.582;10.112;2022-07-06T13:15:53;3.25;;;1.08;;
69856;SDS011;57147;53.582;10.112;2022-07-06T13:20:54;3.58;;;0.35;;
69856;SDS011;57147;53.582;10.112;2022-07-06T13:25:54;3.00;;;0.63;;
69856;SDS011;57147;53.582;10.112;2022-07-06T13:30:57;1.75;;;0.10;;
69856;SDS011;57147;53.582;10.112;2022-07-06T13:35:58;2.88;;;0.13;;
69856;SDS011;57147;53.582;10.112;2022-07-06T13:41:00;2.55;;;0.43;;
69856;SDS011;57147;53.582;10.112;2022-07-06T13:46:05;2.08;;;0.45;;
69856;SDS011;57147;53.582;10.112;2022-07-06T13:51:06;1.40;;;0.45;;
69856;SDS011;57147;53.582;10.112;2022-07-06T13:56:07;2.08;;;0.45;;
69856;SDS011;57147;53.582;10.112;2022-07-06T14:01:10;1.58;;;0.40;;
69856;SDS011;57147;53.582;10.112;2022-07-06T14:06:12;1.67;;;0.20;;
69856;SDS011;57147;53.582;10.112;2022-07-06T14:11:12;2.05;;;0.50;;
69856;SDS011;57147;53.582;10.112;2022-07-06T14:16:16;2.17;;;0.10;;
69856;SDS011;57147;53.582;10.112;2022-07-06T14:21:16;2.28;;;0.45;;
69856;SDS011;57147;53.582;10.112;2022-07-06T14:26:17;2.08;;;0.30;;
69856;SDS011;57147;53.582;10.112;2022-07-06T14:31:20;1.23;;;0.13;;
69856;SDS011;57147;53.582;10.112;2022-07-06T14:36:21;1.90;;;0.55;;
69856;SDS011;57147;53.582;10.112;2022-07-06T14:41:22;5.47;;;0.00;;
69856;SDS011;57147;53.582;10.112;2022-07-06T14:46:25;4.72;;;0.20;;
69856;SDS011;57147;53.582;10.112;2022-07-06T14:51:26;3.55;;;0.30;;
69856;SDS011;57147;53.582;10.112;2022-07-06T14:56:27;2.72;;;0.38;;
69856;SDS011;57147;53.582;10.112;2022-07-06T15:01:30;3.92;;;0.55;;
69856;SDS011;57147;53.582;10.112;2022-07-06T15:06:31;1.60;;;0.20;;
69856;SDS011;57147;53.582;10.112;2022-07-06T15:11:32;1.95;;;0.20;;
69856;SDS011;57147;53.582;10.112;2022-07-06T15:16:36;2.10;;;0.25;;
69856;SDS011;57147;53.582;10.112;2022-07-06T15:21:36;2.47;;;0.20;;
69856;SDS011;57147;53.582;10.112;2022-07-06T15:26:37;1.55;;;0.00;;
69856;SDS011;57147;53.582;10.112;2022-07-06T15:31:40;3.40;;;0.32;;
69856;SDS011;57147;53.582;10.112;2022-07-06T15:36:41;2.75;;;0.35;;
69856;SDS011;57147;53.582;10.112;2022-07-06T15:41:42;3.92;;;0.55;;
69856;SDS011;57147;53.582;10.112;2022-07-06T15:46:45;2.15;;;0.28;;
69856;SDS011;57147;53.582;10.112;2022-07-06T15:51:46;2.92;;;0.45;;
69856;SDS011;57147;53.582;10.112;2022-07-06T15:56:46;3.10;;;0.30;;
69856;SDS011;57147;53.582;10.112;2022-07-06T16:01:49;2.38;;;0.20;;
69856;SDS011;57147;53.582;10.112;2022-07-06T16:06:50;3.35;;;0.52;;
69856;SDS011;57147;53.582;10.112;2022-07-06T16:11:51;4.07;;;0.13;;
69856;SDS011;57147;53.582;10.112;2022-07-06T16:16:54;2.10;;;0.65;;
69856;SDS011;57147;53.582;10.112;2022-07-06T16:21:55;1.13;;;0.38;;
69856;SDS011;57147;53.582;10.112;2022-07-06T16:26:56;4.97;;;0.73;;
69856;SDS011;57147;53.582;10.112;2022-07-06T16:32:00;3.13;;;0.63;;
69856;SDS011;57147;53.582;10.112;2022-07-06T16:37:00;4.47;;;1.33;;
69856;SDS011;57147;53.582;10.112;2022-07-06T16:42:01;4.80;;;0.32;;
69856;SDS011;57147;53.582;10.112;2022-07-06T16:47:05;2.35;;;0.25;;
69856;SDS011;57147;53.582;10.112;2022-07-06T16:52:06;1.77;;;0.20;;
69856;SDS011;57147;53.582;10.112;2022-07-06T16:57:07;5.07;;;1.63;;
69856;SDS011;57147;53.582;10.112;2022-07-06T17:02:10;2.65;;;0.50;;
69856;SDS011;57147;53.582;10.112;2022-07-06T17:07:12;4.00;;;0.50;;
69856;SDS011;57147;53.582;10.112;2022-07-06T17:12:14;3.33;;;0.40;;
69856;SDS011;57147;53.582;10.112;2022-07-06T17:17:17;4.55;;;0.47;;
69856;SDS011;57147;53.582;10.112;2022-07-06T17:22:17;2.08;;;0.43;;
69856;SDS011;57147;53.582;10.112;2022-07-06T17:27:18;3.25;;;0.70;;
69856;SDS011;57147;53.582;10.112;2022-07-06T17:32:21;4.13;;;0.70;;
69856;SDS011;57147;53.582;10.112;2022-07-06T17:37:22;1.63;;;0.20;;
69856;SDS011;57147;53.582;10.112;2022-07-06T17:42:23;2.22;;;0.20;;
69856;SDS011;57147;53.582;10.112;2022-07-06T17:47:26;2.08;;;0.28;;
69856;SDS011;57147;53.582;10.112;2022-07-06T17:52:27;1.95;;;0.43;;
69856;SDS011;57147;53.582;10.112;2022-07-06T17:57:28;4.05;;;0.52;;
69856;SDS011;57147;53.582;10.112;2022-07-06T18:02:31;3.58;;;0.50;;
69856;SDS011;57147;53.582;10.112;2022-07-06T18:07:31;2.58;;;0.38;;
69856;SDS011;57147;53.582;10.112;2022-07-06T18:12:32;3.55;;;0.80;;
69856;SDS011;57147;53.582;10.112;2022-07-06T18:17:36;2.55;;;0.10;;
69856;SDS011;57147;53.582;10.112;2022-07-06T18:22:37;2.53;;;0.63;;
69856;SDS011;57147;53.582;10.112;2022-07-06T18:27:38;3.17;;;0.20;;
69856;SDS011;57147;53.582;10.112;2022-07-06T18:32:41;3.67;;;0.60;;
69856;SDS011;57147;53.582;10.112;2022-07-06T18:37:42;2.53;;;0.38;;
69856;SDS011;57147;53.582;10.112;2022-07-06T18:42:43;2.60;;;0.30;;
69856;SDS011;57147;53.582;10.112;2022-07-06T18:47:47;1.65;;;0.50;;
69856;SDS011;57147;53.582;10.112;2022-07-06T18:57:50;4.28;;;0.60;;
69856;SDS011;57147;53.582;10.112;2022-07-06T19:02:54;3.53;;;0.80;;
69856;SDS011;57147;53.582;10.112;2022-07-06T19:07:55;3.50;;;0.98;;
69856;SDS011;57147;53.582;10.112;2022-07-06T19:12:57;3.00;;;0.55;;
69856;SDS011;57147;53.582;10.112;2022-07-06T19:18:01;4.60;;;0.50;;
69856;SDS011;57147;53.582;10.112;2022-07-06T19:23:02;4.80;;;0.08;;
69856;SDS011;57147;53.582;10.112;2022-07-06T19:28:04;5.05;;;0.30;;
69856;SDS011;57147;53.582;10.112;2022-07-06T19:33:08;2.20;;;0.47;;
69856;SDS011;57147;53.582;10.112;2022-07-06T19:38:09;3.08;;;0.45;;
69856;SDS011;57147;53.582;10.112;2022-07-06T19:43:10;2.70;;;0.17;;
69856;SDS011;57147;53.582;10.112;2022-07-06T19:48:14;3.15;;;0.52;;
69856;SDS011;57147;53.582;10.112;2022-07-06T19:53:15;7.70;;;0.73;;
69856;SDS011;57147;53.582;10.112;2022-07-06T19:58:16;2.78;;;0.95;;
69856;SDS011;57147;53.582;10.112;2022-07-06T20:03:20;4.53;;;1.65;;
69856;SDS011;57147;53.582;10.112;2022-07-06T20:08:22;4.95;;;0.90;;
69856;SDS011;57147;53.582;10.112;2022-07-06T20:13:23;4.47;;;2.05;;
69856;SDS011;57147;53.582;10.112;2022-07-06T20:18:27;6.10;;;1.63;;
69856;SDS011;57147;53.582;10.112;2022-07-06T20:23:28;4.85;;;1.88;;
69856;SDS011;57147;53.582;10.112;2022-07-06T20:28:29;6.53;;;3.38;;
69856;SDS011;57147;53.582;10.112;2022-07-06T20:33:32;7.18;;;1.80;;
69856;SDS011;57147;53.582;10.112;2022-07-06T20:38:33;5.18;;;1.65;;
69856;SDS011;57147;53.582;10.112;2022-07-06T20:43:33;3.22;;;2.05;;
69856;SDS011;57147;53.582;10.112;2022-07-06T20:48:37;4.47;;;1.45;;
69856;SDS011;57147;53.582;10.112;2022-07-06T20:53:37;6.63;;;1.75;;
69856;SDS011;57147;53.582;10.112;2022-07-06T20:58:38;6.95;;;3.08;;
69856;SDS011;57147;53.582;10.112;2022-07-06T21:03:41;3.40;;;0.80;;
69856;SDS011;57147;53.582;10.112;2022-07-06T21:08:42;5.72;;;1.27;;
69856;SDS011;57147;53.582;10.112;2022-07-06T21:13:42;7.35;;;2.38;;
69856;SDS011;57147;53.582;10.112;2022-07-06T21:18:46;4.30;;;0.80;;
69856;SDS011;57147;53.582;10.112;2022-07-06T21:23:48;4.75;;;0.93;;
69856;SDS011;57147;53.582;10.112;2022-07-06T21:28:49;4.93;;;0.70;;
69856;SDS011;57147;53.582;10.112;2022-07-06T21:33:52;3.58;;;1.25;;
69856;SDS011;57147;53.582;10.112;2022-07-06T21:38:59;3.03;;;0.90;;
69856;SDS011;57147;53.582;10.112;2022-07-06T21:43:59;3.20;;;2.05;;
69856;SDS011;57147;53.582;10.112;2022-07-06T21:49:03;3.17;;;1.98;;
69856;SDS011;57147;53.582;10.112;2022-07-06T21:54:03;4.35;;;1.67;;
69856;SDS011;57147;53.582;10.112;2022-07-06T21:59:04;4.70;;;2.30;;
69856;SDS011;57147;53.582;10.112;2022-07-06T22:04:08;4.80;;;2.28;;
69856;SDS011;57147;53.582;10.112;2022-07-06T22:09:08;5.43;;;2.83;;
69856;SDS011;57147;53.582;10.112;2022-07-06T22:14:09;5.32;;;2.58;;
69856;SDS011;57147;53.582;10.112;2022-07-06T22:19:12;5.63;;;2.08;;
69856;SDS011;57147;53.582;10.112;2022-07-06T22:24:13;5.60;;;2.10;;
69856;SDS011;57147;53.582;10.112;2022-07-06T22:29:13;5.10;;;2.25;;
69856;SDS011;57147;53.582;10.112;2022-07-06T22:39:37;6.45;;;3.20;;
69856;SDS011;57147;53.582;10.112;2022-07-06T22:55:21;5.40;;;2.97;;
69856;SDS011;57147;53.582;10.112;2022-07-06T23:00:28;5.40;;;3.40;;
69856;SDS011;57147;53.582;10.112;2022-07-06T23:10:42;6.25;;;4.50;;
69856;SDS011;57147;53.582;10.112;2022-07-06T23:15:43;7.05;;;5.03;;
69856;SDS011;57147;53.582;10.112;2022-07-06T23:20:44;7.28;;;4.82;;
69856;SDS011;57147;53.582;10.112;2022-07-06T23:25:47;5.65;;;4.57;;
69856;SDS011;57147;53.582;10.112;2022-07-06T23:30:48;7.00;;;6.25;;
69856;SDS011;57147;53.582;10.112;2022-07-06T23:35:51;5.72;;;4.50;;
69856;SDS011;57147;53.582;10.112;2022-07-06T23:40:55;7.18;;;4.63;;
69856;SDS011;57147;53.582;10.112;2022-07-06T23:45:56;7.30;;;5.22;;
69856;SDS011;57147;53.582;10.112;2022-07-06T23:50:57;4.40;;;3.33;;
69856;SDS011;57147;53.582;10.112;2022-07-06T23:56:00;5.15;;;4.65;;
